createdAt,value
2022-09-12T10:38:09.301Z,40.50
2022-09-12T10:40:39.228Z,43.55
2022-09-12T10:43:24.889Z,44.84
2022-09-12T10:45:52.343Z,45.35
2022-09-12T10:48:31.919Z,45.54
2022-09-12T10:51:01.531Z,45.68
2022-09-12T10:53:34.712Z,45.68
2022-09-12T10:56:10.635Z,45.63
2022-09-12T10:58:50.116Z,45.65
2022-09-12T11:01:32.911Z,45.70
2022-09-12T11:04:26.536Z,45.77
2022-09-12T11:07:08.674Z,45.86
2022-09-12T11:10:06.542Z,45.76
2022-09-12T11:12:55.067Z,45.96
2022-09-12T11:15:57.123Z,45.98
2022-09-12T11:19:03.902Z,46.01
2022-09-12T11:21:47.566Z,46.12
2022-09-12T11:24:19.043Z,46.29
2022-09-12T11:27:15.156Z,46.41
2022-09-12T11:30:03.908Z,46.48
2022-09-12T11:32:42.802Z,46.61
2022-09-12T11:35:17.580Z,46.70
2022-09-12T11:38:09.536Z,46.76
2022-09-12T11:40:46.741Z,46.72
2022-09-12T11:43:31.059Z,46.70
2022-09-12T11:48:49.368Z,46.80
2022-09-12T11:51:26.005Z,46.83
2022-09-12T11:54:16.129Z,47.05
2022-09-12T11:56:48.134Z,47.11
2022-09-12T11:59:34.053Z,47.21
2022-09-12T12:02:04.123Z,47.27
2022-09-12T12:04:46.161Z,47.24
2022-09-12T12:07:13.212Z,47.34
2022-09-12T12:09:50.706Z,47.44
2022-09-12T12:12:25.809Z,47.54
2022-09-12T12:14:55.946Z,47.58
2022-09-12T12:17:25.394Z,47.68
2022-09-12T12:20:07.478Z,47.59
2022-09-12T12:22:36.311Z,47.69
2022-09-12T12:25:12.614Z,47.77
2022-09-12T12:28:02.367Z,47.76
2022-09-12T12:30:33.770Z,47.80
2022-09-12T12:33:07.737Z,47.79
2022-09-12T12:35:44.080Z,47.74
2022-09-12T12:38:46.402Z,47.65
2022-09-12T12:41:19.362Z,47.59
2022-09-12T12:43:49.718Z,47.57
2022-09-12T12:46:21.522Z,47.59
2022-09-12T12:49:10.122Z,47.61
2022-09-12T12:51:56.341Z,47.55
2022-09-12T12:54:48.141Z,47.61
2022-09-12T12:57:19.970Z,47.79
2022-09-12T13:00:28.081Z,47.87
2022-09-12T13:03:07.387Z,47.88
2022-09-12T13:05:53.953Z,47.81
2022-09-12T13:08:21.242Z,47.97
2022-09-12T13:10:52.935Z,48.05
2022-09-12T13:13:32.259Z,48.04
2022-09-12T13:15:59.359Z,48.05
2022-09-12T13:18:30.542Z,48.07
2022-09-12T13:21:04.892Z,48.16
2022-09-12T13:23:33.091Z,48.09
2022-09-12T13:26:02.489Z,48.06
2022-09-12T13:28:31.403Z,48.13
2022-09-12T13:31:04.618Z,48.21
2022-09-12T13:33:42.311Z,48.18
2022-09-12T13:36:30.415Z,48.37
2022-09-12T13:39:06.534Z,48.36
2022-09-12T13:41:42.081Z,48.42
2022-09-12T13:44:16.643Z,48.42
2022-09-12T13:46:44.563Z,48.48
2022-09-12T13:49:31.107Z,48.53
2022-09-12T13:52:06.002Z,48.48
2022-09-12T13:54:38.199Z,48.35
2022-09-12T13:57:06.169Z,48.43
2022-09-12T13:59:44.583Z,48.43
2022-09-12T14:02:20.578Z,48.42
2022-09-12T14:05:07.831Z,48.43
2022-09-12T14:07:40.781Z,48.27
2022-09-12T14:10:08.209Z,48.31
2022-09-12T14:12:43.806Z,48.15
2022-09-12T14:15:23.815Z,48.09
2022-09-12T14:17:54.049Z,48.10
2022-09-12T14:20:23.663Z,48.07
2022-09-12T14:22:52.667Z,48.11
2022-09-12T14:25:22.919Z,48.24
2022-09-12T14:27:59.455Z,48.28
2022-09-12T14:30:32.859Z,48.39
2022-09-12T14:33:05.915Z,48.49
2022-09-12T14:35:33.825Z,48.55
2022-09-12T14:38:10.412Z,48.56
2022-09-12T14:41:10.164Z,48.67
2022-09-12T14:43:41.524Z,48.73
2022-09-12T14:46:21.730Z,48.72
2022-09-12T14:49:00.435Z,48.83
2022-09-12T14:51:49.389Z,48.93
2022-09-12T14:54:34.264Z,48.91
2022-09-12T14:57:31.018Z,48.70
2022-09-12T15:00:22.096Z,48.42
2022-09-12T15:02:52.539Z,48.18
2022-09-12T15:05:25.918Z,48.06
2022-09-12T15:08:00.688Z,47.90
2022-09-12T15:10:38.037Z,47.70
2022-09-12T15:13:14.641Z,47.51
2022-09-12T15:15:44.739Z,47.34
2022-09-12T15:18:12.754Z,47.24
2022-09-12T15:20:43.189Z,47.17
2022-09-12T15:23:28.569Z,47.11
2022-09-12T15:25:56.034Z,46.87
2022-09-12T15:28:24.310Z,46.73
2022-09-12T15:30:53.833Z,46.36
2022-09-12T15:33:24.385Z,46.35
2022-09-12T15:35:52.767Z,46.11
2022-09-12T15:38:25.803Z,45.80
2022-09-12T15:40:54.963Z,45.62
2022-09-12T15:43:53.746Z,45.23
2022-09-12T15:46:21.226Z,45.05
2022-09-12T15:48:56.097Z,45.10
2022-09-12T15:51:25.747Z,44.80
2022-09-12T15:53:53.292Z,44.80
2022-09-12T15:56:22.815Z,44.76
2022-09-12T15:58:58.790Z,44.47
2022-09-12T16:01:28.804Z,44.47
2022-09-12T16:03:56.668Z,44.34
2022-09-12T16:06:37.233Z,44.07
2022-09-12T16:09:05.106Z,44.07
2022-09-12T16:11:33.455Z,43.97
2022-09-12T16:14:00.878Z,43.87
2022-09-12T16:16:28.461Z,43.92
2022-09-12T16:23:26.331Z,43.45
2022-09-12T16:26:02.312Z,43.62
2022-09-12T16:28:30.467Z,43.53
2022-09-12T16:30:59.360Z,43.43
2022-09-12T16:33:33.573Z,43.48
2022-09-12T16:36:06.786Z,43.38
2022-09-12T16:38:36.072Z,43.42
2022-09-12T16:41:08.062Z,43.40
2022-09-12T16:43:37.301Z,43.27
2022-09-12T16:46:16.771Z,43.34
2022-09-12T16:48:54.000Z,43.28
2022-09-12T16:51:24.344Z,43.16
2022-09-12T16:53:54.188Z,43.19
2022-09-12T16:56:22.582Z,43.01
2022-09-12T16:58:52.560Z,43.14
2022-09-12T17:01:23.951Z,43.05
2022-09-12T17:03:58.434Z,43.07
2022-09-12T17:06:27.302Z,42.98
2022-09-12T17:08:58.252Z,43.00
2022-09-12T17:11:30.897Z,42.79
2022-09-12T17:14:05.040Z,42.86
2022-09-12T17:16:42.243Z,42.64
2022-09-12T17:19:19.018Z,42.78
2022-09-12T17:21:50.545Z,42.71
2022-09-12T17:24:19.302Z,42.64
2022-09-12T17:26:52.067Z,42.64
2022-09-12T17:29:19.746Z,42.68
2022-09-12T17:31:48.506Z,42.65
2022-09-12T17:34:16.742Z,42.68
2022-09-12T17:37:03.185Z,42.53
2022-09-12T17:39:30.534Z,42.52
2022-09-12T17:42:02.838Z,42.44
2022-09-12T17:44:38.040Z,42.47
2022-09-12T17:47:05.847Z,42.44
2022-09-12T17:49:33.753Z,42.23
2022-09-12T17:52:17.660Z,42.30
2022-09-12T17:54:45.494Z,42.28
2022-09-12T18:04:23.042Z,41.99
2022-09-12T18:22:50.486Z,41.87
2022-09-12T18:25:17.522Z,41.96
2022-09-12T18:27:44.720Z,41.85
2022-09-12T18:30:21.805Z,41.95
2022-09-12T18:32:50.361Z,41.89
2022-09-12T18:35:17.935Z,41.84
2022-09-12T18:37:45.178Z,41.82
2022-09-12T18:40:12.355Z,41.81
2022-09-12T18:42:39.526Z,41.77
2022-09-12T18:45:07.418Z,41.68
2022-09-12T18:47:34.518Z,41.70
2022-09-12T18:50:01.670Z,41.60
2022-09-12T18:52:28.933Z,41.63
2022-09-12T18:54:55.931Z,41.56
2022-09-12T18:57:25.186Z,41.54
2022-09-12T18:59:53.266Z,41.50
2022-09-12T19:02:20.587Z,41.37
2022-09-12T19:04:47.680Z,41.47
2022-09-12T19:07:15.426Z,41.48
2022-09-12T19:09:42.452Z,41.45
2022-09-12T19:12:09.587Z,41.38
2022-09-12T19:16:18.709Z,41.38
2022-09-12T19:18:26.812Z,41.21
2022-09-12T19:20:54.319Z,41.30
2022-09-12T19:23:21.508Z,41.22
2022-09-12T19:26:05.591Z,41.29
2022-09-12T19:28:33.646Z,41.15
2022-09-12T19:31:04.131Z,41.22
2022-09-12T19:39:09.102Z,41.06
2022-09-12T19:45:26.030Z,40.73
2022-09-12T19:47:55.670Z,40.92
2022-09-12T19:50:25.129Z,40.82
2022-09-12T19:52:52.499Z,40.99
2022-09-12T19:55:20.148Z,40.83
2022-09-12T19:57:48.773Z,40.90
2022-09-12T20:00:19.102Z,40.88
2022-09-12T20:02:51.057Z,40.76
2022-09-12T20:05:21.057Z,40.74
2022-09-12T20:07:48.470Z,40.76
2022-09-12T20:15:54.253Z,40.65
2022-09-12T20:18:22.331Z,40.57
2022-09-12T20:20:49.659Z,40.54
2022-09-12T20:23:18.021Z,40.52
2022-09-12T20:25:45.110Z,40.47
2022-09-12T20:29:13.823Z,40.35
2022-09-12T20:31:43.971Z,40.46
2022-09-12T20:34:20.514Z,40.50
2022-09-12T20:36:48.270Z,40.34
2022-09-12T20:39:27.043Z,40.46
2022-09-12T20:42:05.789Z,40.37
2022-09-12T20:44:47.114Z,40.37
2022-09-12T20:47:17.539Z,40.35
2022-09-12T20:52:53.075Z,40.39
2022-09-12T20:55:24.362Z,40.37
2022-09-12T20:58:02.703Z,40.28
2022-09-12T21:00:58.563Z,40.13
2022-09-12T21:03:35.203Z,40.20
